Aviation Digital Data Service (ADDS)

Output produced by METARs form (0242 UTC 24 July 2017)
found at http://www.aviationweather.gov/adds/metars/
 
MBGT 232255Z 2400/2500 10016KT 9999 SCT020 SCT240 
     FM241200 10015KT 9999 SCT016 SCT035
       
MBPV 232255Z 2400/2500 13009KT 9999 SCT017 SCT240 
     FM241200 10015KT 9999 SCT018 SCT035